sensor_id;sensor_type;location;lat;lon;timestamp;P1;durP1;ratioP1;P2;durP2;ratioP2
11893;SDS011;6006;49.696;8.662;2023-03-15T00:01:53;1.90;;;1.30;;
11893;SDS011;6006;49.696;8.662;2023-03-15T00:04:19;4.03;;;1.60;;
11893;SDS011;6006;49.696;8.662;2023-03-15T00:06:49;3.90;;;1.60;;
11893;SDS011;6006;49.696;8.662;2023-03-15T00:09:16;3.23;;;1.60;;
11893;SDS011;6006;49.696;8.662;2023-03-15T00:11:42;1.70;;;1.60;;
11893;SDS011;6006;49.696;8.662;2023-03-15T00:14:09;2.40;;;1.77;;
11893;SDS011;6006;49.696;8.662;2023-03-15T00:16:36;3.43;;;1.90;;
11893;SDS011;6006;49.696;8.662;2023-03-15T00:19:04;2.80;;;1.80;;
11893;SDS011;6006;49.696;8.662;2023-03-15T00:21:31;1.83;;;1.60;;
11893;SDS011;6006;49.696;8.662;2023-03-15T00:23:58;2.67;;;1.70;;
11893;SDS011;6006;49.696;8.662;2023-03-15T00:26:25;3.53;;;1.80;;
11893;SDS011;6006;49.696;8.662;2023-03-15T00:28:51;3.43;;;1.67;;
11893;SDS011;6006;49.696;8.662;2023-03-15T00:31:19;2.30;;;1.40;;
11893;SDS011;6006;49.696;8.662;2023-03-15T00:33:47;2.53;;;1.70;;
11893;SDS011;6006;49.696;8.662;2023-03-15T00:36:19;2.57;;;1.47;;
11893;SDS011;6006;49.696;8.662;2023-03-15T00:38:48;6.73;;;2.13;;
11893;SDS011;6006;49.696;8.662;2023-03-15T00:41:16;2.37;;;1.83;;
11893;SDS011;6006;49.696;8.662;2023-03-15T00:43:45;1.90;;;1.37;;
11893;SDS011;6006;49.696;8.662;2023-03-15T00:46:12;2.53;;;1.67;;
11893;SDS011;6006;49.696;8.662;2023-03-15T00:48:40;2.33;;;1.80;;
11893;SDS011;6006;49.696;8.662;2023-03-15T00:51:07;2.10;;;1.70;;
11893;SDS011;6006;49.696;8.662;2023-03-15T00:53:38;1.43;;;1.27;;
11893;SDS011;6006;49.696;8.662;2023-03-15T00:56:07;1.70;;;1.60;;
11893;SDS011;6006;49.696;8.662;2023-03-15T00:58:38;3.07;;;2.30;;
11893;SDS011;6006;49.696;8.662;2023-03-15T01:01:06;3.03;;;1.83;;
11893;SDS011;6006;49.696;8.662;2023-03-15T01:03:33;4.70;;;2.30;;
11893;SDS011;6006;49.696;8.662;2023-03-15T01:06:03;3.80;;;1.80;;
11893;SDS011;6006;49.696;8.662;2023-03-15T01:08:31;2.37;;;1.57;;
11893;SDS011;6006;49.696;8.662;2023-03-15T01:11:01;2.37;;;1.77;;
11893;SDS011;6006;49.696;8.662;2023-03-15T01:13:29;5.63;;;2.40;;
11893;SDS011;6006;49.696;8.662;2023-03-15T01:15:56;4.60;;;2.70;;
11893;SDS011;6006;49.696;8.662;2023-03-15T01:18:22;5.93;;;3.43;;
11893;SDS011;6006;49.696;8.662;2023-03-15T01:20:49;5.53;;;2.70;;
11893;SDS011;6006;49.696;8.662;2023-03-15T01:23:16;3.70;;;2.70;;
11893;SDS011;6006;49.696;8.662;2023-03-15T01:25:43;4.23;;;2.47;;
11893;SDS011;6006;49.696;8.662;2023-03-15T01:28:11;7.17;;;2.73;;
11893;SDS011;6006;49.696;8.662;2023-03-15T01:30:38;6.40;;;3.40;;
11893;SDS011;6006;49.696;8.662;2023-03-15T01:33:06;4.83;;;2.80;;
11893;SDS011;6006;49.696;8.662;2023-03-15T01:35:33;2.43;;;2.07;;
11893;SDS011;6006;49.696;8.662;2023-03-15T01:37:59;3.97;;;2.83;;
11893;SDS011;6006;49.696;8.662;2023-03-15T01:40:26;6.93;;;2.50;;
11893;SDS011;6006;49.696;8.662;2023-03-15T01:43:09;6.90;;;3.00;;
11893;SDS011;6006;49.696;8.662;2023-03-15T01:48:33;4.40;;;2.30;;
11893;SDS011;6006;49.696;8.662;2023-03-15T01:51:03;6.90;;;2.47;;
11893;SDS011;6006;49.696;8.662;2023-03-15T01:53:36;3.00;;;1.90;;
11893;SDS011;6006;49.696;8.662;2023-03-15T01:56:05;3.60;;;2.03;;
11893;SDS011;6006;49.696;8.662;2023-03-15T01:58:34;6.00;;;2.60;;
11893;SDS011;6006;49.696;8.662;2023-03-15T02:01:01;7.27;;;2.23;;
11893;SDS011;6006;49.696;8.662;2023-03-15T02:03:29;4.87;;;2.10;;
11893;SDS011;6006;49.696;8.662;2023-03-15T02:06:01;2.33;;;1.70;;
11893;SDS011;6006;49.696;8.662;2023-03-15T02:08:31;3.00;;;1.77;;
11893;SDS011;6006;49.696;8.662;2023-03-15T02:11:02;4.60;;;1.70;;
11893;SDS011;6006;49.696;8.662;2023-03-15T02:13:30;3.10;;;1.70;;
11893;SDS011;6006;49.696;8.662;2023-03-15T02:16:00;2.73;;;1.70;;
11893;SDS011;6006;49.696;8.662;2023-03-15T02:18:30;4.70;;;2.70;;
11893;SDS011;6006;49.696;8.662;2023-03-15T02:21:00;4.47;;;2.57;;
11893;SDS011;6006;49.696;8.662;2023-03-15T02:23:36;6.03;;;2.07;;
11893;SDS011;6006;49.696;8.662;2023-03-15T02:26:06;2.93;;;1.50;;
11893;SDS011;6006;49.696;8.662;2023-03-15T02:28:41;3.43;;;1.40;;
11893;SDS011;6006;49.696;8.662;2023-03-15T02:31:08;4.70;;;1.80;;
11893;SDS011;6006;49.696;8.662;2023-03-15T02:33:38;2.80;;;1.67;;
11893;SDS011;6006;49.696;8.662;2023-03-15T02:36:09;4.53;;;2.03;;
11893;SDS011;6006;49.696;8.662;2023-03-15T02:38:39;2.13;;;1.50;;
11893;SDS011;6006;49.696;8.662;2023-03-15T02:41:06;2.53;;;1.37;;
11893;SDS011;6006;49.696;8.662;2023-03-15T02:43:33;3.13;;;1.20;;
11893;SDS011;6006;49.696;8.662;2023-03-15T02:46:03;2.60;;;1.40;;
11893;SDS011;6006;49.696;8.662;2023-03-15T02:48:30;2.43;;;1.40;;
11893;SDS011;6006;49.696;8.662;2023-03-15T02:51:00;2.37;;;1.17;;
11893;SDS011;6006;49.696;8.662;2023-03-15T02:53:27;1.40;;;1.30;;
11893;SDS011;6006;49.696;8.662;2023-03-15T02:55:55;2.03;;;1.10;;
11893;SDS011;6006;49.696;8.662;2023-03-15T02:58:22;3.80;;;1.30;;
11893;SDS011;6006;49.696;8.662;2023-03-15T03:00:50;2.50;;;1.33;;
11893;SDS011;6006;49.696;8.662;2023-03-15T03:03:19;2.33;;;1.20;;
11893;SDS011;6006;49.696;8.662;2023-03-15T03:05:46;2.27;;;1.30;;
11893;SDS011;6006;49.696;8.662;2023-03-15T03:08:12;2.83;;;1.30;;
11893;SDS011;6006;49.696;8.662;2023-03-15T03:10:40;3.27;;;1.40;;
11893;SDS011;6006;49.696;8.662;2023-03-15T03:13:08;2.33;;;1.20;;
11893;SDS011;6006;49.696;8.662;2023-03-15T03:15:35;2.60;;;1.20;;
11893;SDS011;6006;49.696;8.662;2023-03-15T03:18:02;2.80;;;1.50;;
11893;SDS011;6006;49.696;8.662;2023-03-15T03:20:30;1.17;;;1.07;;
11893;SDS011;6006;49.696;8.662;2023-03-15T03:22:57;2.60;;;1.40;;
11893;SDS011;6006;49.696;8.662;2023-03-15T03:25:29;5.40;;;1.20;;
11893;SDS011;6006;49.696;8.662;2023-03-15T03:27:56;3.53;;;1.63;;
11893;SDS011;6006;49.696;8.662;2023-03-15T03:30:24;5.30;;;1.03;;
11893;SDS011;6006;49.696;8.662;2023-03-15T03:32:50;0.83;;;0.83;;
11893;SDS011;6006;49.696;8.662;2023-03-15T03:35:17;1.90;;;1.33;;
11893;SDS011;6006;49.696;8.662;2023-03-15T03:37:45;3.40;;;1.07;;
11893;SDS011;6006;49.696;8.662;2023-03-15T03:40:13;2.53;;;1.20;;
11893;SDS011;6006;49.696;8.662;2023-03-15T03:42:40;1.93;;;1.37;;
11893;SDS011;6006;49.696;8.662;2023-03-15T03:45:07;3.73;;;1.37;;
11893;SDS011;6006;49.696;8.662;2023-03-15T03:47:34;3.20;;;1.40;;
11893;SDS011;6006;49.696;8.662;2023-03-15T03:50:01;2.00;;;1.30;;
11893;SDS011;6006;49.696;8.662;2023-03-15T03:52:28;2.37;;;1.20;;
11893;SDS011;6006;49.696;8.662;2023-03-15T03:54:56;2.77;;;1.17;;
11893;SDS011;6006;49.696;8.662;2023-03-15T03:57:23;4.10;;;1.47;;
11893;SDS011;6006;49.696;8.662;2023-03-15T03:59:50;4.23;;;1.20;;
11893;SDS011;6006;49.696;8.662;2023-03-15T04:02:17;4.63;;;1.40;;
11893;SDS011;6006;49.696;8.662;2023-03-15T04:04:43;3.57;;;1.50;;
11893;SDS011;6006;49.696;8.662;2023-03-15T04:07:14;2.80;;;1.60;;
11893;SDS011;6006;49.696;8.662;2023-03-15T04:09:41;2.50;;;1.53;;
11893;SDS011;6006;49.696;8.662;2023-03-15T04:12:09;1.70;;;1.33;;
11893;SDS011;6006;49.696;8.662;2023-03-15T04:14:36;1.67;;;1.50;;
11893;SDS011;6006;49.696;8.662;2023-03-15T04:17:03;3.63;;;1.40;;
11893;SDS011;6006;49.696;8.662;2023-03-15T04:19:30;4.00;;;1.37;;
11893;SDS011;6006;49.696;8.662;2023-03-15T04:21:57;2.63;;;1.60;;
11893;SDS011;6006;49.696;8.662;2023-03-15T04:24:30;2.00;;;1.13;;
11893;SDS011;6006;49.696;8.662;2023-03-15T04:26:57;2.87;;;1.73;;
11893;SDS011;6006;49.696;8.662;2023-03-15T04:29:26;1.77;;;1.17;;
11893;SDS011;6006;49.696;8.662;2023-03-15T04:31:53;5.37;;;1.47;;
11893;SDS011;6006;49.696;8.662;2023-03-15T04:34:25;2.33;;;1.40;;
11893;SDS011;6006;49.696;8.662;2023-03-15T04:36:53;1.60;;;1.23;;
11893;SDS011;6006;49.696;8.662;2023-03-15T04:39:20;3.13;;;1.23;;
11893;SDS011;6006;49.696;8.662;2023-03-15T04:41:47;1.70;;;1.20;;
11893;SDS011;6006;49.696;8.662;2023-03-15T04:44:14;2.40;;;1.60;;
11893;SDS011;6006;49.696;8.662;2023-03-15T04:46:42;3.27;;;1.27;;
11893;SDS011;6006;49.696;8.662;2023-03-15T04:49:09;1.67;;;1.57;;
11893;SDS011;6006;49.696;8.662;2023-03-15T04:51:36;2.83;;;1.23;;
11893;SDS011;6006;49.696;8.662;2023-03-15T04:54:03;1.30;;;1.20;;
11893;SDS011;6006;49.696;8.662;2023-03-15T04:56:30;2.23;;;1.20;;
11893;SDS011;6006;49.696;8.662;2023-03-15T04:58:57;3.40;;;1.10;;
11893;SDS011;6006;49.696;8.662;2023-03-15T05:01:25;3.30;;;1.70;;
11893;SDS011;6006;49.696;8.662;2023-03-15T05:03:55;2.20;;;1.40;;
11893;SDS011;6006;49.696;8.662;2023-03-15T05:06:22;2.47;;;1.70;;
11893;SDS011;6006;49.696;8.662;2023-03-15T05:08:49;1.93;;;1.53;;
11893;SDS011;6006;49.696;8.662;2023-03-15T05:11:16;1.30;;;1.20;;
11893;SDS011;6006;49.696;8.662;2023-03-15T05:13:43;4.83;;;1.53;;
11893;SDS011;6006;49.696;8.662;2023-03-15T05:16:09;3.13;;;1.53;;
11893;SDS011;6006;49.696;8.662;2023-03-15T05:18:36;2.47;;;1.27;;
11893;SDS011;6006;49.696;8.662;2023-03-15T05:21:05;1.63;;;1.37;;
11893;SDS011;6006;49.696;8.662;2023-03-15T05:23:32;4.67;;;1.90;;
11893;SDS011;6006;49.696;8.662;2023-03-15T05:25:59;2.37;;;1.77;;
11893;SDS011;6006;49.696;8.662;2023-03-15T05:28:26;3.70;;;1.77;;
11893;SDS011;6006;49.696;8.662;2023-03-15T05:30:53;3.00;;;1.40;;
11893;SDS011;6006;49.696;8.662;2023-03-15T05:33:19;1.63;;;1.50;;
11893;SDS011;6006;49.696;8.662;2023-03-15T05:35:47;5.87;;;2.27;;
11893;SDS011;6006;49.696;8.662;2023-03-15T05:38:15;4.30;;;1.80;;
11893;SDS011;6006;49.696;8.662;2023-03-15T05:40:42;2.80;;;1.77;;
11893;SDS011;6006;49.696;8.662;2023-03-15T05:43:10;4.20;;;1.57;;
11893;SDS011;6006;49.696;8.662;2023-03-15T05:45:37;4.57;;;1.60;;
11893;SDS011;6006;49.696;8.662;2023-03-15T05:48:04;2.90;;;1.80;;
11893;SDS011;6006;49.696;8.662;2023-03-15T05:50:31;3.43;;;1.77;;
11893;SDS011;6006;49.696;8.662;2023-03-15T05:52:59;2.90;;;1.70;;
11893;SDS011;6006;49.696;8.662;2023-03-15T05:55:27;6.70;;;2.13;;
11893;SDS011;6006;49.696;8.662;2023-03-15T05:57:53;5.30;;;2.40;;
11893;SDS011;6006;49.696;8.662;2023-03-15T06:00:20;2.90;;;1.87;;
11893;SDS011;6006;49.696;8.662;2023-03-15T06:02:47;3.50;;;2.53;;
11893;SDS011;6006;49.696;8.662;2023-03-15T06:05:14;3.13;;;2.63;;
11893;SDS011;6006;49.696;8.662;2023-03-15T06:07:41;3.33;;;2.63;;
11893;SDS011;6006;49.696;8.662;2023-03-15T06:10:09;6.07;;;4.10;;
11893;SDS011;6006;49.696;8.662;2023-03-15T06:12:38;6.50;;;4.03;;
11893;SDS011;6006;49.696;8.662;2023-03-15T06:15:05;6.47;;;4.70;;
11893;SDS011;6006;49.696;8.662;2023-03-15T06:17:32;7.33;;;4.03;;
11893;SDS011;6006;49.696;8.662;2023-03-15T06:19:59;5.30;;;3.63;;
11893;SDS011;6006;49.696;8.662;2023-03-15T06:22:26;8.20;;;3.73;;
11893;SDS011;6006;49.696;8.662;2023-03-15T06:24:53;8.23;;;3.80;;
11893;SDS011;6006;49.696;8.662;2023-03-15T06:27:20;8.03;;;3.67;;
11893;SDS011;6006;49.696;8.662;2023-03-15T06:29:48;6.57;;;3.50;;
11893;SDS011;6006;49.696;8.662;2023-03-15T06:32:15;8.60;;;4.00;;
11893;SDS011;6006;49.696;8.662;2023-03-15T06:34:42;4.63;;;3.13;;
11893;SDS011;6006;49.696;8.662;2023-03-15T06:37:09;7.87;;;3.40;;
11893;SDS011;6006;49.696;8.662;2023-03-15T06:39:37;4.37;;;3.27;;
11893;SDS011;6006;49.696;8.662;2023-03-15T06:42:04;4.93;;;3.17;;
11893;SDS011;6006;49.696;8.662;2023-03-15T06:44:32;5.87;;;3.27;;
11893;SDS011;6006;49.696;8.662;2023-03-15T06:47:00;4.53;;;3.30;;
11893;SDS011;6006;49.696;8.662;2023-03-15T06:49:28;4.37;;;3.30;;
11893;SDS011;6006;49.696;8.662;2023-03-15T06:51:55;5.37;;;3.13;;
11893;SDS011;6006;49.696;8.662;2023-03-15T06:54:22;7.10;;;3.60;;
11893;SDS011;6006;49.696;8.662;2023-03-15T06:56:49;5.53;;;2.87;;
11893;SDS011;6006;49.696;8.662;2023-03-15T06:59:16;4.03;;;2.73;;
11893;SDS011;6006;49.696;8.662;2023-03-15T07:01:43;5.67;;;2.93;;
11893;SDS011;6006;49.696;8.662;2023-03-15T07:04:11;7.93;;;4.23;;
11893;SDS011;6006;49.696;8.662;2023-03-15T07:06:38;6.63;;;4.93;;
11893;SDS011;6006;49.696;8.662;2023-03-15T07:09:04;5.43;;;3.57;;
11893;SDS011;6006;49.696;8.662;2023-03-15T07:11:31;8.70;;;4.20;;
11893;SDS011;6006;49.696;8.662;2023-03-15T07:13:58;4.47;;;3.50;;
11893;SDS011;6006;49.696;8.662;2023-03-15T07:16:25;8.67;;;4.23;;
11893;SDS011;6006;49.696;8.662;2023-03-15T07:18:52;5.20;;;3.40;;
11893;SDS011;6006;49.696;8.662;2023-03-15T07:21:21;7.30;;;3.40;;
11893;SDS011;6006;49.696;8.662;2023-03-15T07:23:48;10.00;;;5.27;;
11893;SDS011;6006;49.696;8.662;2023-03-15T07:26:15;4.23;;;2.83;;
11893;SDS011;6006;49.696;8.662;2023-03-15T07:28:41;4.33;;;3.37;;
11893;SDS011;6006;49.696;8.662;2023-03-15T07:31:09;6.07;;;3.80;;
11893;SDS011;6006;49.696;8.662;2023-03-15T07:33:36;7.30;;;3.90;;
11893;SDS011;6006;49.696;8.662;2023-03-15T07:36:04;8.93;;;3.50;;
11893;SDS011;6006;49.696;8.662;2023-03-15T07:38:34;7.17;;;3.60;;
11893;SDS011;6006;49.696;8.662;2023-03-15T07:41:01;4.57;;;3.40;;
11893;SDS011;6006;49.696;8.662;2023-03-15T07:43:29;6.03;;;3.13;;
11893;SDS011;6006;49.696;8.662;2023-03-15T07:45:56;5.53;;;3.97;;
11893;SDS011;6006;49.696;8.662;2023-03-15T07:48:23;11.10;;;5.00;;
11893;SDS011;6006;49.696;8.662;2023-03-15T07:50:50;6.13;;;3.73;;
11893;SDS011;6006;49.696;8.662;2023-03-15T07:53:17;3.93;;;3.33;;
11893;SDS011;6006;49.696;8.662;2023-03-15T07:55:47;5.90;;;3.13;;
11893;SDS011;6006;49.696;8.662;2023-03-15T07:58:14;6.70;;;3.90;;
11893;SDS011;6006;49.696;8.662;2023-03-15T08:00:41;4.53;;;3.63;;
11893;SDS011;6006;49.696;8.662;2023-03-15T08:03:08;6.83;;;5.20;;
11893;SDS011;6006;49.696;8.662;2023-03-15T08:05:34;6.03;;;4.70;;
11893;SDS011;6006;49.696;8.662;2023-03-15T08:08:02;9.87;;;5.60;;
11893;SDS011;6006;49.696;8.662;2023-03-15T08:10:29;10.10;;;4.93;;
11893;SDS011;6006;49.696;8.662;2023-03-15T08:12:57;5.93;;;4.17;;
11893;SDS011;6006;49.696;8.662;2023-03-15T08:15:24;8.53;;;4.63;;
11893;SDS011;6006;49.696;8.662;2023-03-15T08:17:50;6.20;;;4.37;;
11893;SDS011;6006;49.696;8.662;2023-03-15T08:20:17;8.77;;;5.90;;
11893;SDS011;6006;49.696;8.662;2023-03-15T08:22:45;9.20;;;5.77;;
11893;SDS011;6006;49.696;8.662;2023-03-15T08:25:13;4.77;;;4.07;;
11893;SDS011;6006;49.696;8.662;2023-03-15T08:27:42;6.17;;;4.20;;
11893;SDS011;6006;49.696;8.662;2023-03-15T08:30:11;7.60;;;4.57;;
11893;SDS011;6006;49.696;8.662;2023-03-15T08:32:39;3.73;;;3.13;;
11893;SDS011;6006;49.696;8.662;2023-03-15T08:35:07;5.57;;;3.50;;
11893;SDS011;6006;49.696;8.662;2023-03-15T08:37:34;7.10;;;4.50;;
11893;SDS011;6006;49.696;8.662;2023-03-15T08:40:01;8.10;;;6.00;;
11893;SDS011;6006;49.696;8.662;2023-03-15T08:42:33;6.03;;;4.63;;
11893;SDS011;6006;49.696;8.662;2023-03-15T08:45:00;5.73;;;3.57;;
11893;SDS011;6006;49.696;8.662;2023-03-15T08:47:28;6.80;;;3.70;;
11893;SDS011;6006;49.696;8.662;2023-03-15T08:49:55;6.43;;;3.77;;
11893;SDS011;6006;49.696;8.662;2023-03-15T08:52:22;7.40;;;5.67;;
11893;SDS011;6006;49.696;8.662;2023-03-15T08:54:48;6.73;;;4.70;;
11893;SDS011;6006;49.696;8.662;2023-03-15T08:57:15;9.10;;;4.90;;
11893;SDS011;6006;49.696;8.662;2023-03-15T08:59:42;9.30;;;6.23;;
11893;SDS011;6006;49.696;8.662;2023-03-15T09:02:09;5.73;;;4.43;;
11893;SDS011;6006;49.696;8.662;2023-03-15T09:04:38;6.27;;;4.37;;
11893;SDS011;6006;49.696;8.662;2023-03-15T09:07:05;6.87;;;3.70;;
11893;SDS011;6006;49.696;8.662;2023-03-15T09:09:32;4.03;;;3.30;;
11893;SDS011;6006;49.696;8.662;2023-03-15T09:11:59;4.70;;;4.00;;
11893;SDS011;6006;49.696;8.662;2023-03-15T09:14:25;5.00;;;4.17;;
11893;SDS011;6006;49.696;8.662;2023-03-15T09:16:53;6.13;;;4.83;;
11893;SDS011;6006;49.696;8.662;2023-03-15T09:19:19;6.00;;;4.00;;
11893;SDS011;6006;49.696;8.662;2023-03-15T09:21:47;5.97;;;3.93;;
11893;SDS011;6006;49.696;8.662;2023-03-15T09:24:15;5.13;;;3.17;;
11893;SDS011;6006;49.696;8.662;2023-03-15T09:26:42;4.30;;;3.57;;
11893;SDS011;6006;49.696;8.662;2023-03-15T09:29:09;6.67;;;4.00;;
11893;SDS011;6006;49.696;8.662;2023-03-15T09:31:35;5.73;;;4.07;;
11893;SDS011;6006;49.696;8.662;2023-03-15T09:34:02;5.53;;;4.13;;
11893;SDS011;6006;49.696;8.662;2023-03-15T09:36:29;5.20;;;3.97;;
11893;SDS011;6006;49.696;8.662;2023-03-15T09:38:58;4.27;;;3.83;;
11893;SDS011;6006;49.696;8.662;2023-03-15T09:41:31;4.37;;;3.83;;
11893;SDS011;6006;49.696;8.662;2023-03-15T09:44:11;5.37;;;3.90;;
11893;SDS011;6006;49.696;8.662;2023-03-15T09:46:51;4.53;;;3.83;;
11893;SDS011;6006;49.696;8.662;2023-03-15T09:49:31;4.73;;;3.70;;
11893;SDS011;6006;49.696;8.662;2023-03-15T09:52:03;4.47;;;3.40;;
11893;SDS011;6006;49.696;8.662;2023-03-15T09:54:40;7.60;;;3.97;;
11893;SDS011;6006;49.696;8.662;2023-03-15T09:57:11;4.60;;;3.67;;
11893;SDS011;6006;49.696;8.662;2023-03-15T09:59:42;7.33;;;3.67;;
11893;SDS011;6006;49.696;8.662;2023-03-15T10:02:14;4.90;;;3.60;;
11893;SDS011;6006;49.696;8.662;2023-03-15T10:04:46;5.40;;;4.33;;
11893;SDS011;6006;49.696;8.662;2023-03-15T10:07:17;4.80;;;3.63;;
11893;SDS011;6006;49.696;8.662;2023-03-15T10:09:45;4.47;;;4.00;;
11893;SDS011;6006;49.696;8.662;2023-03-15T10:12:13;5.73;;;3.80;;
11893;SDS011;6006;49.696;8.662;2023-03-15T10:14:53;5.50;;;4.17;;
11893;SDS011;6006;49.696;8.662;2023-03-15T10:17:42;4.20;;;3.67;;
11893;SDS011;6006;49.696;8.662;2023-03-15T10:20:16;4.63;;;3.83;;
11893;SDS011;6006;49.696;8.662;2023-03-15T10:22:47;4.43;;;3.10;;
11893;SDS011;6006;49.696;8.662;2023-03-15T10:25:22;5.90;;;3.90;;
11893;SDS011;6006;49.696;8.662;2023-03-15T10:27:51;4.47;;;3.50;;
11893;SDS011;6006;49.696;8.662;2023-03-15T10:30:22;4.87;;;3.23;;
11893;SDS011;6006;49.696;8.662;2023-03-15T10:32:51;4.40;;;3.20;;
11893;SDS011;6006;49.696;8.662;2023-03-15T10:35:21;3.90;;;2.93;;
11893;SDS011;6006;49.696;8.662;2023-03-15T10:37:48;8.00;;;6.00;;
11893;SDS011;6006;49.696;8.662;2023-03-15T10:40:15;6.83;;;3.93;;
11893;SDS011;6006;49.696;8.662;2023-03-15T10:43:03;6.57;;;3.30;;
11893;SDS011;6006;49.696;8.662;2023-03-15T10:45:39;5.43;;;3.33;;
11893;SDS011;6006;49.696;8.662;2023-03-15T10:48:06;4.53;;;3.33;;
11893;SDS011;6006;49.696;8.662;2023-03-15T10:50:34;4.83;;;3.27;;
11893;SDS011;6006;49.696;8.662;2023-03-15T10:53:07;3.57;;;3.10;;
11893;SDS011;6006;49.696;8.662;2023-03-15T10:55:35;5.57;;;3.47;;
11893;SDS011;6006;49.696;8.662;2023-03-15T10:58:23;4.80;;;3.67;;
11893;SDS011;6006;49.696;8.662;2023-03-15T11:00:52;5.27;;;3.17;;
11893;SDS011;6006;49.696;8.662;2023-03-15T11:03:25;7.73;;;4.57;;
11893;SDS011;6006;49.696;8.662;2023-03-15T11:05:53;5.03;;;3.70;;
11893;SDS011;6006;49.696;8.662;2023-03-15T11:08:22;5.23;;;3.70;;
11893;SDS011;6006;49.696;8.662;2023-03-15T11:10:56;6.43;;;3.63;;
11893;SDS011;6006;49.696;8.662;2023-03-15T11:13:26;4.37;;;3.80;;
11893;SDS011;6006;49.696;8.662;2023-03-15T11:15:57;4.73;;;3.73;;
11893;SDS011;6006;49.696;8.662;2023-03-15T11:18:29;4.30;;;3.30;;
11893;SDS011;6006;49.696;8.662;2023-03-15T11:21:00;6.33;;;3.97;;
11893;SDS011;6006;49.696;8.662;2023-03-15T11:23:31;4.33;;;3.93;;
11893;SDS011;6006;49.696;8.662;2023-03-15T11:26:00;4.00;;;3.40;;
11893;SDS011;6006;49.696;8.662;2023-03-15T11:28:30;4.60;;;3.77;;
11893;SDS011;6006;49.696;8.662;2023-03-15T11:31:00;5.77;;;3.60;;
11893;SDS011;6006;49.696;8.662;2023-03-15T11:33:31;5.83;;;4.67;;
11893;SDS011;6006;49.696;8.662;2023-03-15T11:36:06;7.53;;;4.70;;
11893;SDS011;6006;49.696;8.662;2023-03-15T11:38:38;5.27;;;3.90;;
11893;SDS011;6006;49.696;8.662;2023-03-15T11:41:10;4.70;;;3.80;;
11893;SDS011;6006;49.696;8.662;2023-03-15T11:43:48;4.73;;;4.10;;
11893;SDS011;6006;49.696;8.662;2023-03-15T11:46:23;4.67;;;4.07;;
11893;SDS011;6006;49.696;8.662;2023-03-15T11:48:54;4.30;;;3.90;;
11893;SDS011;6006;49.696;8.662;2023-03-15T11:51:26;4.37;;;3.97;;
11893;SDS011;6006;49.696;8.662;2023-03-15T11:54:00;5.23;;;3.70;;
11893;SDS011;6006;49.696;8.662;2023-03-15T11:56:48;4.87;;;3.97;;
11893;SDS011;6006;49.696;8.662;2023-03-15T11:59:22;5.93;;;4.23;;
11893;SDS011;6006;49.696;8.662;2023-03-15T12:01:53;8.07;;;5.23;;
11893;SDS011;6006;49.696;8.662;2023-03-15T12:04:27;5.20;;;4.00;;
11893;SDS011;6006;49.696;8.662;2023-03-15T12:07:35;7.20;;;6.20;;
11893;SDS011;6006;49.696;8.662;2023-03-15T12:10:19;5.50;;;4.87;;
11893;SDS011;6006;49.696;8.662;2023-03-15T12:13:05;5.83;;;4.60;;
11893;SDS011;6006;49.696;8.662;2023-03-15T12:15:44;8.57;;;5.00;;
11893;SDS011;6006;49.696;8.662;2023-03-15T12:18:19;7.17;;;4.17;;
11893;SDS011;6006;49.696;8.662;2023-03-15T12:20:50;6.67;;;4.53;;
11893;SDS011;6006;49.696;8.662;2023-03-15T12:23:31;6.40;;;4.93;;
11893;SDS011;6006;49.696;8.662;2023-03-15T12:26:07;5.90;;;5.17;;
11893;SDS011;6006;49.696;8.662;2023-03-15T12:28:48;5.63;;;4.20;;
11893;SDS011;6006;49.696;8.662;2023-03-15T12:31:18;7.73;;;5.40;;
11893;SDS011;6006;49.696;8.662;2023-03-15T12:33:46;5.00;;;4.50;;
11893;SDS011;6006;49.696;8.662;2023-03-15T12:36:17;5.70;;;4.70;;
11893;SDS011;6006;49.696;8.662;2023-03-15T12:38:54;7.17;;;4.83;;
11893;SDS011;6006;49.696;8.662;2023-03-15T12:41:33;8.20;;;4.83;;
11893;SDS011;6006;49.696;8.662;2023-03-15T12:44:16;6.63;;;4.60;;
11893;SDS011;6006;49.696;8.662;2023-03-15T12:47:04;5.33;;;4.63;;
11893;SDS011;6006;49.696;8.662;2023-03-15T12:49:33;6.10;;;5.00;;
11893;SDS011;6006;49.696;8.662;2023-03-15T12:52:12;5.00;;;4.40;;
11893;SDS011;6006;49.696;8.662;2023-03-15T12:54:57;3.93;;;3.63;;
11893;SDS011;6006;49.696;8.662;2023-03-15T12:57:29;4.40;;;3.43;;
11893;SDS011;6006;49.696;8.662;2023-03-15T13:00:02;3.97;;;3.63;;
11893;SDS011;6006;49.696;8.662;2023-03-15T13:02:33;4.03;;;3.50;;
11893;SDS011;6006;49.696;8.662;2023-03-15T13:05:06;4.80;;;3.47;;
11893;SDS011;6006;49.696;8.662;2023-03-15T13:07:54;3.97;;;3.40;;
11893;SDS011;6006;49.696;8.662;2023-03-15T13:10:29;4.13;;;3.20;;
11893;SDS011;6006;49.696;8.662;2023-03-15T13:13:07;3.83;;;3.37;;
11893;SDS011;6006;49.696;8.662;2023-03-15T13:15:40;3.60;;;3.30;;
11893;SDS011;6006;49.696;8.662;2023-03-15T13:18:12;4.73;;;3.23;;
11893;SDS011;6006;49.696;8.662;2023-03-15T13:20:47;3.63;;;3.17;;
11893;SDS011;6006;49.696;8.662;2023-03-15T13:23:25;4.37;;;2.93;;
11893;SDS011;6006;49.696;8.662;2023-03-15T13:28:58;3.13;;;2.90;;
11893;SDS011;6006;49.696;8.662;2023-03-15T13:31:28;4.97;;;2.90;;
11893;SDS011;6006;49.696;8.662;2023-03-15T13:33:57;3.70;;;2.93;;
11893;SDS011;6006;49.696;8.662;2023-03-15T13:36:39;4.30;;;2.90;;
11893;SDS011;6006;49.696;8.662;2023-03-15T13:39:15;3.50;;;3.20;;
11893;SDS011;6006;49.696;8.662;2023-03-15T13:41:44;2.70;;;2.50;;
11893;SDS011;6006;49.696;8.662;2023-03-15T13:44:14;3.47;;;2.70;;
11893;SDS011;6006;49.696;8.662;2023-03-15T13:46:45;4.10;;;3.73;;
11893;SDS011;6006;49.696;8.662;2023-03-15T13:49:14;4.10;;;3.77;;
11893;SDS011;6006;49.696;8.662;2023-03-15T13:51:40;3.57;;;3.27;;
11893;SDS011;6006;49.696;8.662;2023-03-15T13:54:10;3.70;;;2.80;;
11893;SDS011;6006;49.696;8.662;2023-03-15T13:56:44;3.23;;;2.33;;
11893;SDS011;6006;49.696;8.662;2023-03-15T13:59:21;2.30;;;2.20;;
11893;SDS011;6006;49.696;8.662;2023-03-15T14:01:51;2.53;;;2.33;;
11893;SDS011;6006;49.696;8.662;2023-03-15T14:04:20;2.53;;;2.33;;
11893;SDS011;6006;49.696;8.662;2023-03-15T14:06:49;2.60;;;2.30;;
11893;SDS011;6006;49.696;8.662;2023-03-15T14:09:17;2.50;;;2.30;;
11893;SDS011;6006;49.696;8.662;2023-03-15T14:11:58;2.90;;;2.70;;
11893;SDS011;6006;49.696;8.662;2023-03-15T14:14:26;2.30;;;2.10;;
11893;SDS011;6006;49.696;8.662;2023-03-15T14:16:55;2.10;;;1.90;;
11893;SDS011;6006;49.696;8.662;2023-03-15T14:19:24;2.20;;;2.10;;
11893;SDS011;6006;49.696;8.662;2023-03-15T14:21:53;2.37;;;2.17;;
11893;SDS011;6006;49.696;8.662;2023-03-15T14:24:24;3.10;;;2.20;;
11893;SDS011;6006;49.696;8.662;2023-03-15T14:26:55;2.43;;;2.23;;
11893;SDS011;6006;49.696;8.662;2023-03-15T14:29:26;1.73;;;1.63;;
11893;SDS011;6006;49.696;8.662;2023-03-15T14:31:57;3.13;;;2.83;;
11893;SDS011;6006;49.696;8.662;2023-03-15T14:34:30;6.67;;;4.93;;
11893;SDS011;6006;49.696;8.662;2023-03-15T14:36:59;3.33;;;2.20;;
11893;SDS011;6006;49.696;8.662;2023-03-15T14:39:30;1.53;;;1.43;;
11893;SDS011;6006;49.696;8.662;2023-03-15T14:42:03;1.90;;;1.70;;
11893;SDS011;6006;49.696;8.662;2023-03-15T14:44:30;3.20;;;2.80;;
11893;SDS011;6006;49.696;8.662;2023-03-15T14:46:57;2.37;;;2.17;;
11893;SDS011;6006;49.696;8.662;2023-03-15T14:49:25;1.60;;;1.40;;
11893;SDS011;6006;49.696;8.662;2023-03-15T14:51:54;1.40;;;1.30;;
11893;SDS011;6006;49.696;8.662;2023-03-15T14:54:24;1.70;;;1.60;;
11893;SDS011;6006;49.696;8.662;2023-03-15T14:56:52;1.90;;;1.80;;
11893;SDS011;6006;49.696;8.662;2023-03-15T14:59:19;1.70;;;1.60;;
11893;SDS011;6006;49.696;8.662;2023-03-15T15:01:47;1.57;;;1.47;;
11893;SDS011;6006;49.696;8.662;2023-03-15T15:04:16;1.27;;;1.20;;
11893;SDS011;6006;49.696;8.662;2023-03-15T15:06:44;1.73;;;1.60;;
11893;SDS011;6006;49.696;8.662;2023-03-15T15:09:17;1.80;;;1.70;;
11893;SDS011;6006;49.696;8.662;2023-03-15T15:11:48;2.30;;;1.50;;
11893;SDS011;6006;49.696;8.662;2023-03-15T15:14:15;1.50;;;1.40;;
11893;SDS011;6006;49.696;8.662;2023-03-15T15:16:42;1.70;;;1.60;;
11893;SDS011;6006;49.696;8.662;2023-03-15T15:19:09;2.30;;;1.87;;
11893;SDS011;6006;49.696;8.662;2023-03-15T15:21:37;1.50;;;1.40;;